Time;durP1;ratioP1;P1;durP2;ratioP2;P2;SDS_P1;SDS_P2;PMS_P1;PMS_P2;Temp;Humidity;BMP_temperature;BMP_pressure;BME280_temperature;BME280_humidity;BME280_pressure;Samples;Min_cycle;Max_cycle;Signal;HPM_P1;HPM_P2
2021/09/22 00:01:49;;;;;;;7.90;3.80;;;19.30;70.00;;;;;;4992763;28;20034;-76
2021/09/22 00:04:15;;;;;;;6.60;3.30;;;19.30;69.90;;;;;;4992881;28;20026;-76
2021/09/22 00:06:40;;;;;;;6.88;3.67;;;19.30;69.90;;;;;;4992859;28;20027;-76
2021/09/22 00:09:06;;;;;;;6.68;3.70;;;19.30;70.30;;;;;;4992812;28;20080;-76
2021/09/22 00:11:31;;;;;;;7.43;3.63;;;19.30;69.80;;;;;;4993837;28;20022;-76
2021/09/22 00:13:57;;;;;;;6.13;3.15;;;19.30;70.00;;;;;;4992750;28;20031;-78
2021/09/22 00:16:23;;;;;;;8.90;3.90;;;19.30;70.10;;;;;;4992702;28;20117;-76
2021/09/22 00:18:48;;;;;;;7.45;3.33;;;19.30;69.80;;;;;;4992561;28;20022;-76
2021/09/22 00:21:14;;;;;;;6.70;3.30;;;19.30;70.10;;;;;;4992303;28;20030;-76
2021/09/22 00:23:39;;;;;;;8.35;3.75;;;19.30;70.40;;;;;;4992755;28;20033;-76
2021/09/22 00:26:05;;;;;;;7.60;3.53;;;19.30;70.10;;;;;;4993654;28;20089;-78
2021/09/22 00:28:31;;;;;;;6.25;3.50;;;19.30;70.40;;;;;;4993887;28;20093;-78
2021/09/22 00:30:57;;;;;;;8.15;3.80;;;19.30;70.00;;;;;;4992453;28;20523;-78
2021/09/22 00:33:23;;;;;;;6.15;3.17;;;19.20;70.20;;;;;;4993807;28;20057;-78
2021/09/22 00:35:48;;;;;;;8.85;3.38;;;19.20;70.30;;;;;;4994092;28;20110;-78
2021/09/22 00:38:14;;;;;;;7.10;3.75;;;19.30;70.50;;;;;;4992425;28;20499;-77
2021/09/22 00:40:39;;;;;;;7.65;3.38;;;19.20;70.10;;;;;;4991673;28;20041;-78
2021/09/22 00:43:05;;;;;;;7.50;3.58;;;19.20;70.20;;;;;;4992319;28;20053;-78
2021/09/22 00:45:30;;;;;;;7.60;3.50;;;19.20;71.20;;;;;;4992415;28;20065;-77
2021/09/22 00:47:56;;;;;;;6.75;3.63;;;19.20;70.40;;;;;;4993437;28;20034;-77
2021/09/22 00:50:22;;;;;;;6.95;3.70;;;19.20;70.30;;;;;;4993136;28;20027;-76
2021/09/22 00:52:47;;;;;;;7.80;3.55;;;19.20;70.30;;;;;;4992242;28;20159;-78
2021/09/22 00:55:13;;;;;;;8.07;3.75;;;19.20;70.30;;;;;;4992011;28;20022;-78
2021/09/22 00:57:59;;;;;;;7.80;3.50;;;19.20;70.30;;;;;;4993197;28;20027;-76
2021/09/22 01:00:27;;;;;;;6.82;3.47;;;19.20;70.40;;;;;;4993103;28;20026;-77
2021/09/22 01:02:53;;;;;;;6.70;3.33;;;19.10;70.40;;;;;;4993309;28;20042;-76
2021/09/22 01:05:22;;;;;;;5.75;3.35;;;19.10;70.40;;;;;;4991896;28;20030;-77
2021/09/22 01:07:48;;;;;;;7.30;3.40;;;19.10;71.00;;;;;;4992985;28;20080;-79
2021/09/22 01:10:16;;;;;;;6.38;3.58;;;19.10;70.40;;;;;;4993050;28;20029;-80
2021/09/22 01:12:42;;;;;;;6.82;3.33;;;19.20;70.60;;;;;;4993094;28;20500;-77
2021/09/22 01:15:08;;;;;;;6.10;3.60;;;19.20;70.70;;;;;;4991828;28;20484;-76
2021/09/22 01:17:34;;;;;;;6.55;3.30;;;19.20;70.90;;;;;;4991992;28;20050;-76
2021/09/22 01:20:08;;;;;;;6.13;3.50;;;19.10;70.80;;;;;;4992845;28;20042;-76
2021/09/22 01:22:34;;;;;;;7.15;3.83;;;19.10;70.60;;;;;;4991924;28;20023;-77
2021/09/22 01:25:00;;;;;;;7.40;3.97;;;19.10;70.80;;;;;;4992020;28;20109;-78
2021/09/22 01:27:26;;;;;;;5.93;3.60;;;19.10;70.60;;;;;;4991785;28;20129;-78
2021/09/22 01:29:53;;;;;;;7.30;3.40;;;19.10;70.60;;;;;;4991890;28;20030;-76
2021/09/22 01:32:19;;;;;;;6.63;3.45;;;19.10;70.70;;;;;;4992977;28;20447;-77
2021/09/22 01:34:45;;;;;;;6.07;3.13;;;19.10;71.70;;;;;;4991502;28;20027;-76
2021/09/22 01:37:11;;;;;;;7.72;3.50;;;19.10;70.80;;;;;;4991823;28;20464;-76
2021/09/22 01:39:42;;;;;;;7.15;3.58;;;19.00;70.60;;;;;;4991767;28;20412;-76
2021/09/22 01:42:08;;;;;;;6.70;3.67;;;19.00;70.60;;;;;;4992306;28;20040;-77
2021/09/22 01:44:35;;;;;;;6.85;3.47;;;19.00;70.60;;;;;;4992890;28;20515;-78
2021/09/22 01:47:00;;;;;;;7.60;3.63;;;19.00;70.50;;;;;;4991670;28;20034;-77
2021/09/22 01:49:26;;;;;;;7.20;3.70;;;19.00;70.50;;;;;;4992948;28;20034;-77
2021/09/22 01:52:00;;;;;;;6.47;3.30;;;19.00;70.60;;;;;;4991213;28;20026;-77
2021/09/22 01:54:27;;;;;;;7.40;3.67;;;19.00;70.60;;;;;;4991597;28;20027;-76
2021/09/22 01:56:53;;;;;;;7.03;3.47;;;19.00;70.60;;;;;;4991588;28;20488;-79
2021/09/22 01:59:19;;;;;;;6.38;3.75;;;19.00;70.70;;;;;;4991561;28;20042;-76
2021/09/22 02:01:44;;;;;;;7.47;3.65;;;19.00;70.70;;;;;;4991295;28;20023;-76
2021/09/22 02:04:10;;;;;;;8.13;3.70;;;19.00;70.70;;;;;;4986899;28;20188;-78
2021/09/22 02:06:35;;;;;;;6.30;3.60;;;19.00;71.30;;;;;;4980214;28;20117;-78
2021/09/22 02:09:01;;;;;;;6.35;3.78;;;19.00;70.70;;;;;;4991481;28;20026;-76
2021/09/22 02:11:26;;;;;;;6.38;3.53;;;19.00;70.70;;;;;;4995533;28;20022;-76
2021/09/22 02:13:52;;;;;;;7.80;4.25;;;18.90;70.80;;;;;;4994919;28;20028;-76
2021/09/22 02:16:18;;;;;;;7.40;3.83;;;18.90;70.70;;;;;;4995029;28;20538;-76
2021/09/22 02:18:43;;;;;;;7.65;3.72;;;18.90;70.70;;;;;;4996153;28;20026;-76
2021/09/22 02:21:10;;;;;;;6.95;3.53;;;18.90;70.70;;;;;;4995763;28;20492;-76
2021/09/22 02:23:40;;;;;;;6.85;4.18;;;18.90;70.80;;;;;;4995854;28;20023;-76
2021/09/22 02:26:06;;;;;;;6.87;3.70;;;18.90;70.70;;;;;;4994677;28;20030;-77
2021/09/22 02:28:33;;;;;;;7.93;3.92;;;18.90;70.80;;;;;;4995969;28;20357;-77
2021/09/22 02:30:59;;;;;;;6.63;3.55;;;18.90;70.90;;;;;;4995759;28;20018;-76
2021/09/22 02:33:25;;;;;;;6.40;3.78;;;18.90;71.10;;;;;;4994538;28;20022;-76
2021/09/22 02:35:52;;;;;;;6.88;3.80;;;18.90;71.00;;;;;;4995805;28;20039;-76
2021/09/22 02:38:17;;;;;;;7.22;3.95;;;18.90;71.00;;;;;;4994563;28;20030;-76
2021/09/22 02:40:43;;;;;;;7.72;3.63;;;18.80;71.10;;;;;;4993931;28;20033;-76
2021/09/22 02:43:09;;;;;;;6.57;3.60;;;18.90;71.10;;;;;;4994536;28;20029;-77
2021/09/22 02:45:34;;;;;;;6.65;3.80;;;18.90;71.20;;;;;;4994276;28;20027;-76
2021/09/22 02:48:00;;;;;;;6.38;3.83;;;18.90;71.30;;;;;;4995773;28;20026;-76
2021/09/22 02:50:25;;;;;;;6.95;3.90;;;18.80;71.10;;;;;;4994272;28;20126;-78
2021/09/22 02:52:51;;;;;;;6.30;3.83;;;18.80;71.30;;;;;;4994380;28;20053;-76
2021/09/22 02:55:16;;;;;;;6.25;3.60;;;18.80;71.30;;;;;;4994315;28;20031;-76
2021/09/22 02:57:43;;;;;;;7.30;3.88;;;18.80;71.40;;;;;;4994186;28;20399;-77
2021/09/22 03:00:09;;;;;;;6.65;3.70;;;18.80;71.40;;;;;;4993838;28;20035;-77
2021/09/22 03:02:36;;;;;;;5.50;3.40;;;18.80;71.40;;;;;;4994118;28;20027;-76
2021/09/22 03:05:02;;;;;;;6.38;3.55;;;18.80;71.30;;;;;;4993922;28;20023;-76
2021/09/22 03:07:27;;;;;;;5.88;3.40;;;18.80;71.30;;;;;;4993946;28;20408;-76
2021/09/22 03:09:53;;;;;;;6.13;3.38;;;18.80;71.50;;;;;;4995047;28;20029;-82
2021/09/22 03:12:18;;;;;;;6.60;3.72;;;18.80;71.50;;;;;;4995107;28;20442;-78
2021/09/22 03:14:44;;;;;;;6.35;3.58;;;18.80;71.50;;;;;;4995185;28;20023;-76
2021/09/22 03:17:09;;;;;;;6.00;3.35;;;18.80;71.50;;;;;;4993935;28;20022;-76
2021/09/22 03:19:35;;;;;;;6.53;3.40;;;18.80;71.40;;;;;;4993796;28;20022;-76
2021/09/22 03:22:00;;;;;;;5.88;3.53;;;18.80;71.50;;;;;;4992305;28;20022;-76
2021/09/22 03:24:26;;;;;;;5.90;3.40;;;18.80;71.60;;;;;;4993733;28;20041;-76
2021/09/22 03:26:52;;;;;;;6.47;3.50;;;18.80;71.60;;;;;;4994901;28;20030;-76
2021/09/22 03:29:17;;;;;;;7.50;3.80;;;18.80;71.60;;;;;;4994984;28;20035;-77
2021/09/22 03:31:44;;;;;;;6.18;3.33;;;18.80;71.60;;;;;;4993465;28;20045;-76
2021/09/22 03:34:10;;;;;;;7.90;3.80;;;18.80;71.80;;;;;;4993043;28;20026;-77
2021/09/22 03:36:35;;;;;;;7.00;3.70;;;18.80;71.70;;;;;;4993569;28;20552;-77
2021/09/22 03:39:02;;;;;;;6.35;3.40;;;18.80;71.70;;;;;;4993707;28;20065;-76
2021/09/22 03:41:27;;;;;;;6.15;3.80;;;18.80;71.60;;;;;;4993987;28;20115;-76
2021/09/22 03:43:53;;;;;;;6.28;3.78;;;18.80;71.80;;;;;;4994435;28;20468;-76
2021/09/22 03:46:19;;;;;;;7.25;3.53;;;18.70;71.80;;;;;;4993278;28;20089;-76
2021/09/22 03:48:44;;;;;;;6.07;3.50;;;18.70;71.80;;;;;;4994471;28;20019;-78
2021/09/22 03:51:10;;;;;;;6.68;3.47;;;18.70;71.80;;;;;;4993219;28;20027;-76
2021/09/22 03:53:36;;;;;;;5.40;3.38;;;18.80;71.80;;;;;;4994615;28;20026;-77
2021/09/22 03:56:01;;;;;;;6.53;3.28;;;18.80;72.00;;;;;;4993092;28;20092;-76
2021/09/22 03:58:28;;;;;;;5.45;3.17;;;18.70;71.80;;;;;;4993306;28;20587;-77
2021/09/22 04:00:54;;;;;;;6.15;3.50;;;18.70;71.80;;;;;;4994033;28;20070;-78
2021/09/22 04:03:19;;;;;;;5.80;3.28;;;18.70;71.80;;;;;;4994182;28;20026;-77
2021/09/22 04:05:45;;;;;;;6.68;3.53;;;18.70;71.80;;;;;;4981587;28;20050;-78
2021/09/22 04:08:10;;;;;;;6.90;3.97;;;18.70;71.90;;;;;;4973247;28;20135;-77
2021/09/22 04:10:36;;;;;;;6.05;3.78;;;18.70;72.00;;;;;;4974408;28;20105;-76
2021/09/22 04:13:02;;;;;;;6.35;3.63;;;18.70;71.90;;;;;;4973289;28;20023;-76
2021/09/22 04:15:27;;;;;;;6.85;3.25;;;18.80;72.00;;;;;;4973400;28;20074;-77
2021/09/22 04:17:53;;;;;;;7.07;3.90;;;18.70;71.90;;;;;;4974537;28;20027;-77
2021/09/22 04:20:18;;;;;;;6.65;3.58;;;18.70;71.90;;;;;;4974119;28;20042;-80
2021/09/22 04:22:44;;;;;;;6.35;3.92;;;18.70;71.90;;;;;;4992433;28;20072;-78
2021/09/22 04:25:10;;;;;;;6.03;3.33;;;18.70;72.00;;;;;;4993613;28;20576;-77
2021/09/22 04:27:36;;;;;;;6.20;3.08;;;18.70;72.00;;;;;;4992421;28;20033;-77
2021/09/22 04:30:03;;;;;;;11.38;3.72;;;18.70;72.20;;;;;;4992323;28;20023;-77
2021/09/22 04:32:28;;;;;;;8.48;3.60;;;18.70;72.20;;;;;;4991964;28;20018;-76
2021/09/22 04:34:54;;;;;;;10.20;4.15;;;18.70;72.10;;;;;;4993295;28;20042;-76
2021/09/22 04:37:21;;;;;;;8.00;3.25;;;18.70;72.00;;;;;;4974630;28;20042;-76
2021/09/22 04:39:47;;;;;;;8.55;3.45;;;18.70;72.10;;;;;;4991178;28;20030;-76
2021/09/22 04:42:12;;;;;;;8.32;3.40;;;18.70;72.00;;;;;;4992708;28;20035;-76
2021/09/22 04:44:38;;;;;;;7.63;4.20;;;18.70;72.10;;;;;;4992574;28;20022;-77
2021/09/22 04:47:04;;;;;;;6.10;3.30;;;18.70;72.10;;;;;;4991426;28;20070;-76
2021/09/22 04:49:31;;;;;;;5.45;3.13;;;18.70;72.10;;;;;;4993213;28;20022;-75
2021/09/22 04:51:57;;;;;;;6.47;3.40;;;18.70;72.20;;;;;;4991239;28;20034;-76
2021/09/22 04:54:22;;;;;;;6.43;3.47;;;18.70;72.30;;;;;;4991290;28;20402;-76
2021/09/22 04:56:48;;;;;;;6.63;3.17;;;18.70;72.20;;;;;;4991618;28;20022;-76
2021/09/22 04:59:13;;;;;;;6.53;3.53;;;18.70;72.30;;;;;;4990996;28;20092;-76
2021/09/22 05:01:39;;;;;;;6.25;3.10;;;18.70;72.30;;;;;;4990922;28;20080;-75
2021/09/22 05:04:06;;;;;;;6.70;3.40;;;18.70;72.50;;;;;;4991059;28;20377;-76
2021/09/22 05:06:34;;;;;;;6.55;3.70;;;18.70;72.40;;;;;;4991040;28;20030;-75
2021/09/22 05:08:59;;;;;;;6.22;3.67;;;18.70;72.30;;;;;;4990873;28;20510;-76
2021/09/22 05:11:26;;;;;;;6.53;3.60;;;18.70;72.20;;;;;;4991995;28;20049;-76
2021/09/22 05:13:52;;;;;;;6.82;3.55;;;18.70;72.50;;;;;;4990925;28;20022;-76
2021/09/22 05:16:17;;;;;;;7.82;3.92;;;18.70;72.40;;;;;;4990624;28;20160;-76
2021/09/22 05:18:43;;;;;;;7.07;3.80;;;18.70;72.20;;;;;;4992627;28;20149;-76
2021/09/22 05:21:09;;;;;;;6.28;3.95;;;18.70;72.30;;;;;;4992161;28;20026;-76
2021/09/22 05:23:34;;;;;;;6.28;3.80;;;18.70;72.40;;;;;;4991023;28;20041;-76
2021/09/22 05:26:00;;;;;;;6.25;3.70;;;18.70;72.30;;;;;;4990940;28;20499;-76
2021/09/22 05:28:25;;;;;;;8.23;4.72;;;18.70;72.30;;;;;;4991387;28;20124;-77
2021/09/22 05:30:51;;;;;;;6.45;4.07;;;18.70;72.40;;;;;;4991879;28;20053;-76
2021/09/22 05:33:16;;;;;;;7.63;3.80;;;18.70;72.40;;;;;;4992569;28;20562;-76
2021/09/22 05:35:42;;;;;;;7.47;4.28;;;18.70;72.50;;;;;;4991895;28;20420;-76
2021/09/22 05:38:07;;;;;;;7.10;3.80;;;18.70;72.30;;;;;;4991641;28;20038;-76
2021/09/22 05:40:33;;;;;;;7.22;4.30;;;18.70;72.40;;;;;;4989991;28;20381;-76
2021/09/22 05:42:59;;;;;;;10.38;4.40;;;18.70;72.30;;;;;;4990592;28;20510;-76
2021/09/22 05:45:25;;;;;;;11.20;6.82;;;18.70;72.60;;;;;;4987633;28;20027;-75
2021/09/22 05:47:51;;;;;;;10.30;5.72;;;18.70;72.00;;;;;;4985052;28;20459;-76
2021/09/22 05:50:17;;;;;;;11.27;7.20;;;18.70;71.50;;;;;;4990413;28;20680;-75
2021/09/22 05:52:42;;;;;;;10.95;7.93;;;18.60;71.50;;;;;;4998029;28;20022;-75
2021/09/22 05:55:08;;;;;;;12.50;8.82;;;18.60;71.60;;;;;;5002818;28;20034;-76
2021/09/22 05:57:34;;;;;;;12.98;9.35;;;18.60;71.60;;;;;;4990825;28;20104;-76
2021/09/22 05:59:59;;;;;;;14.77;10.18;;;18.60;71.60;;;;;;4993745;28;20100;-76
2021/09/22 06:02:25;;;;;;;17.58;10.32;;;18.60;71.60;;;;;;5009616;28;20081;-75
2021/09/22 06:04:51;;;;;;;13.75;8.88;;;18.80;71.80;;;;;;5008125;28;20502;-75
2021/09/22 06:07:16;;;;;;;16.23;9.98;;;18.60;71.60;;;;;;5009420;28;20038;-76
2021/09/22 06:09:42;;;;;;;16.17;10.68;;;18.60;71.60;;;;;;4990591;28;20033;-76
2021/09/22 06:12:07;;;;;;;14.95;10.50;;;18.60;71.60;;;;;;4989692;28;20026;-76
2021/09/22 06:14:33;;;;;;;14.52;9.98;;;18.60;71.60;;;;;;4988082;28;20563;-76
2021/09/22 06:16:58;;;;;;;19.48;10.95;;;18.60;71.60;;;;;;4987562;28;20030;-76
2021/09/22 06:19:24;;;;;;;15.00;9.20;;;18.50;71.50;;;;;;4991543;28;20455;-77
2021/09/22 06:21:50;;;;;;;21.00;11.15;;;18.60;71.60;;;;;;4989278;28;20088;-77
2021/09/22 06:24:19;;;;;;;32.92;12.55;;;18.60;71.40;;;;;;4992001;28;20076;-77
2021/09/22 06:26:45;;;;;;;28.52;11.25;;;18.60;71.30;;;;;;4983237;28;20833;-79
2021/09/22 06:29:11;;;;;;;35.65;11.93;;;18.60;71.30;;;;;;4973824;28;20050;-78
2021/09/22 06:31:37;;;;;;;39.13;11.30;;;18.70;71.70;;;;;;4994884;28;20065;-78
2021/09/22 06:34:03;;;;;;;22.35;10.82;;;18.80;71.80;;;;;;5009770;28;20109;-78
2021/09/22 06:36:29;;;;;;;25.50;9.98;;;18.80;71.20;;;;;;5009635;28;20034;-78
2021/09/22 06:38:54;;;;;;;21.67;9.55;;;18.80;71.30;;;;;;5009620;28;20045;-74
2021/09/22 06:41:20;;;;;;;20.88;8.70;;;18.80;71.40;;;;;;5011944;28;20026;-78
2021/09/22 06:43:45;;;;;;;18.58;9.45;;;18.80;71.50;;;;;;5009913;28;20030;-78
2021/09/22 06:46:11;;;;;;;19.27;8.73;;;18.80;71.60;;;;;;4994935;28;20045;-77
2021/09/22 06:48:37;;;;;;;25.48;9.90;;;18.80;71.40;;;;;;4994618;28;20026;-79
2021/09/22 06:51:02;;;;;;;25.38;8.98;;;18.80;71.50;;;;;;5009377;28;20020;-77
2021/09/22 06:53:28;;;;;;;18.70;8.35;;;18.80;71.50;;;;;;5009630;28;20022;-77
2021/09/22 06:59:06;;;;;;;20.33;8.18;;;18.80;71.60;;;;;;5679928;22;20053;-75
2021/09/22 07:01:31;;;;;;;18.85;8.02;;;18.80;71.60;;;;;;5022773;28;20095;-74
2021/09/22 07:03:57;;;;;;;17.60;7.95;;;18.80;71.70;;;;;;5027667;28;20037;-75
2021/09/22 07:06:23;;;;;;;17.15;8.07;;;18.80;72.10;;;;;;5010557;28;20044;-75
2021/09/22 07:08:49;;;;;;;17.92;8.38;;;18.80;72.20;;;;;;5027710;28;20024;-74
2021/09/22 07:14:37;;;;;;;24.70;8.05;;;18.80;72.40;;;;;;5020139;28;20048;-76
2021/09/22 07:17:03;;;;;;;22.10;7.40;;;18.80;72.80;;;;;;5010122;28;20037;-75
2021/09/22 07:19:28;;;;;;;20.38;8.05;;;18.80;72.80;;;;;;5010430;28;20022;-74
2021/09/22 07:21:54;;;;;;;18.80;8.48;;;18.80;73.70;;;;;;5009656;28;20049;-73
2021/09/22 07:24:19;;;;;;;19.95;8.27;;;18.80;73.80;;;;;;5027602;28;20527;-74
2021/09/22 07:26:45;;;;;;;24.27;7.90;;;18.90;73.60;;;;;;5026962;28;20034;-74
2021/09/22 07:29:10;;;;;;;24.95;9.15;;;18.90;73.10;;;;;;5027555;28;20100;-75
2021/09/22 07:31:36;;;;;;;21.42;7.75;;;19.00;72.40;;;;;;5009023;28;20290;-75
2021/09/22 07:34:02;;;;;;;21.45;9.13;;;19.00;73.20;;;;;;5009376;28;20214;-75
2021/09/22 07:36:29;;;;;;;19.55;8.35;;;18.90;72.40;;;;;;5008976;28;20088;-76
2021/09/22 07:38:55;;;;;;;23.25;8.40;;;18.90;72.20;;;;;;5009269;28;20033;-76
2021/09/22 07:41:21;;;;;;;22.55;8.57;;;18.90;73.30;;;;;;5025696;28;20516;-76
2021/09/22 07:43:46;;;;;;;22.08;9.02;;;18.90;72.90;;;;;;5010308;28;20029;-72
2021/09/22 07:46:12;;;;;;;21.52;8.35;;;19.10;72.30;;;;;;5009753;28;20029;-75
2021/09/22 07:48:37;;;;;;;24.20;8.88;;;19.30;71.80;;;;;;5010198;28;20152;-76
2021/09/22 07:51:03;;;;;;;21.85;9.07;;;19.30;70.90;;;;;;5009965;28;20021;-76
2021/09/22 07:53:29;;;;;;;19.92;7.15;;;19.40;71.10;;;;;;5027851;28;20068;-75
2021/09/22 07:55:54;;;;;;;16.85;7.93;;;19.30;71.60;;;;;;5009551;28;20026;-76
2021/09/22 07:58:20;;;;;;;21.55;8.60;;;19.20;71.40;;;;;;5027735;28;20034;-76
2021/09/22 08:00:46;;;;;;;19.02;9.13;;;19.10;71.50;;;;;;5009680;28;20022;-76
2021/09/22 08:03:12;;;;;;;19.20;9.23;;;19.10;71.40;;;;;;5027714;28;20071;-76
2021/09/22 08:05:40;;;;;;;18.95;8.45;;;19.10;72.20;;;;;;5028193;28;20037;-75
2021/09/22 08:08:07;;;;;;;19.63;8.68;;;19.00;72.60;;;;;;5027388;28;20089;-75
2021/09/22 08:10:34;;;;;;;19.48;8.32;;;19.00;72.40;;;;;;5009678;28;20079;-75
2021/09/22 08:13:01;;;;;;;18.05;8.20;;;19.10;72.80;;;;;;5009868;28;20140;-76
2021/09/22 08:15:27;;;;;;;17.02;8.02;;;19.00;73.20;;;;;;5009930;28;20240;-71
2021/09/22 08:17:52;;;;;;;21.63;8.35;;;19.10;72.60;;;;;;5010634;28;20410;-74
2021/09/22 08:20:18;;;;;;;15.68;8.20;;;19.00;72.30;;;;;;5027832;28;20544;-78
2021/09/22 08:22:45;;;;;;;15.63;8.82;;;19.10;72.50;;;;;;5009533;28;20032;-75
2021/09/22 08:25:11;;;;;;;17.15;8.45;;;19.00;72.60;;;;;;5026770;28;20502;-75
2021/09/22 08:27:37;;;;;;;18.77;8.35;;;19.10;72.20;;;;;;5009234;28;20132;-75
2021/09/22 08:30:05;;;;;;;14.40;8.07;;;19.10;72.10;;;;;;5027246;28;20287;-76
2021/09/22 08:32:31;;;;;;;15.35;9.43;;;19.10;72.90;;;;;;5009286;28;20434;-74
2021/09/22 08:34:57;;;;;;;17.48;9.60;;;19.10;72.70;;;;;;5025943;28;20029;-75
2021/09/22 08:37:23;;;;;;;19.83;11.25;;;18.90;73.40;;;;;;5026725;28;20036;-75
2021/09/22 08:39:48;;;;;;;18.55;10.93;;;18.80;74.10;;;;;;5009760;28;20029;-75
2021/09/22 08:42:14;;;;;;;18.90;9.98;;;18.90;73.80;;;;;;5026560;28;20108;-75
2021/09/22 08:44:41;;;;;;;23.30;9.63;;;18.90;73.70;;;;;;5008674;28;20033;-74
2021/09/22 08:47:06;;;;;;;16.13;8.80;;;19.00;73.40;;;;;;5008223;28;20429;-73
2021/09/22 08:49:31;;;;;;;15.13;8.23;;;19.00;72.90;;;;;;5025689;28;20026;-74
2021/09/22 08:51:57;;;;;;;19.40;9.23;;;19.00;73.10;;;;;;5007965;28;20025;-73
2021/09/22 08:54:23;;;;;;;18.40;8.80;;;19.00;72.90;;;;;;5025791;28;20398;-74
2021/09/22 08:56:48;;;;;;;15.57;8.50;;;18.90;73.00;;;;;;5008397;28;20494;-74
2021/09/22 08:59:15;;;;;;;14.15;8.13;;;19.00;73.20;;;;;;5025639;28;20021;-74
2021/09/22 09:01:44;;;;;;;13.15;7.72;;;18.90;73.20;;;;;;5008040;28;20041;-73
2021/09/22 09:04:19;;;;;;;31.67;8.80;;;18.90;73.50;;;;;;5008210;28;20124;-74
2021/09/22 09:06:46;;;;;;;34.55;10.82;;;19.00;73.10;;;;;;5025809;28;20029;-74
2021/09/22 09:09:12;;;;;;;30.25;9.65;;;19.00;73.00;;;;;;5008071;28;20044;-73
2021/09/22 09:11:41;;;;;;;25.15;9.65;;;18.90;74.00;;;;;;5025702;28;20025;-75
2021/09/22 09:14:13;;;;;;;24.15;9.60;;;19.00;74.70;;;;;;5025669;28;20109;-75
2021/09/22 09:16:48;;;;;;;31.55;11.25;;;19.00;74.60;;;;;;5008488;28;20301;-72
2021/09/22 09:19:20;;;;;;;43.38;11.55;;;19.00;74.50;;;;;;5026890;28;20017;-72
2021/09/22 09:22:07;;;;;;;26.73;10.65;;;19.10;74.20;;;;;;5011326;28;20052;-71
2021/09/22 09:24:38;;;;;;;29.40;10.82;;;19.20;74.50;;;;;;5029515;28;20021;-73
2021/09/22 09:27:07;;;;;;;32.20;10.45;;;19.20;74.50;;;;;;5011340;28;20030;-74
2021/09/22 09:29:33;;;;;;;30.52;10.57;;;19.20;74.00;;;;;;5002973;28;20143;-74
2021/09/22 09:32:10;;;;;;;28.10;10.23;;;19.20;73.80;;;;;;5010505;28;20075;-74
2021/09/22 09:34:36;;;;;;;27.73;10.43;;;19.20;73.70;;;;;;5028909;28;20029;-75
2021/09/22 09:37:01;;;;;;;26.35;9.32;;;19.10;73.80;;;;;;5029000;28;20029;-74
2021/09/22 09:39:29;;;;;;;21.95;9.60;;;19.10;73.70;;;;;;5011148;28;20457;-75
2021/09/22 09:41:58;;;;;;;23.95;9.82;;;19.10;73.60;;;;;;5011034;28;20021;-75
2021/09/22 09:44:28;;;;;;;19.98;9.15;;;19.20;73.60;;;;;;5028874;28;20036;-74
2021/09/22 09:47:05;;;;;;;19.38;8.20;;;19.10;73.60;;;;;;5028899;28;20027;-75
2021/09/22 09:49:31;;;;;;;18.92;8.00;;;19.20;73.60;;;;;;5028600;28;20056;-74
2021/09/22 09:51:59;;;;;;;19.20;8.60;;;19.10;73.60;;;;;;5028429;28;20022;-74
2021/09/22 09:54:33;;;;;;;21.38;8.98;;;19.10;73.60;;;;;;5028557;28;20087;-74
2021/09/22 09:57:20;;;;;;;17.58;7.75;;;19.10;73.70;;;;;;5011010;28;20029;-75
2021/09/22 09:59:50;;;;;;;14.75;7.43;;;19.10;73.60;;;;;;5028633;28;20025;-74
2021/09/22 10:02:28;;;;;;;16.92;7.70;;;19.10;73.60;;;;;;5010477;28;20048;-74
2021/09/22 10:04:54;;;;;;;18.30;7.50;;;19.10;73.60;;;;;;5010755;28;20033;-74
2021/09/22 10:07:20;;;;;;;14.65;6.93;;;19.10;73.70;;;;;;5010717;28;20120;-73
2021/09/22 10:09:46;;;;;;;14.48;7.18;;;19.10;73.40;;;;;;5010366;28;20526;-73
2021/09/22 10:12:13;;;;;;;15.27;7.45;;;19.20;73.40;;;;;;5028272;28;20575;-74
2021/09/22 10:14:40;;;;;;;14.90;7.90;;;19.30;73.60;;;;;;5010156;28;20037;-73
2021/09/22 10:17:06;;;;;;;12.55;6.85;;;19.40;72.60;;;;;;5010758;28;20033;-74
2021/09/22 10:19:46;;;;;;;19.10;7.53;;;19.50;72.50;;;;;;5013083;28;20025;-73
2021/09/22 10:22:12;;;;;;;13.27;6.90;;;19.50;72.40;;;;;;5034144;28;20037;-73
2021/09/22 10:24:39;;;;;;;12.73;6.72;;;19.50;72.50;;;;;;5034682;28;20508;-73
2021/09/22 10:27:05;;;;;;;12.82;6.43;;;19.50;72.40;;;;;;5016688;28;20033;-73
2021/09/22 10:29:37;;;;;;;15.15;7.22;;;19.50;72.20;;;;;;5034574;28;20026;-73
2021/09/22 10:32:04;;;;;;;13.55;7.00;;;19.50;72.20;;;;;;5032908;28;20028;-73
2021/09/22 10:34:36;;;;;;;15.52;6.78;;;19.50;72.30;;;;;;5034608;28;20053;-73
2021/09/22 10:37:29;;;;;;;11.40;5.97;;;19.50;72.30;;;;;;5016667;28;20029;-73
2021/09/22 10:39:55;;;;;;;14.57;6.60;;;19.50;72.30;;;;;;5006911;28;20440;-73
2021/09/22 10:42:29;;;;;;;11.57;5.68;;;19.60;72.00;;;;;;5016231;28;20064;-73
2021/09/22 10:45:13;;;;;;;13.63;6.60;;;19.60;71.90;;;;;;5034295;28;20029;-73
2021/09/22 10:47:39;;;;;;;12.43;5.85;;;19.60;71.70;;;;;;5016536;28;20025;-73
2021/09/22 10:50:05;;;;;;;11.98;6.00;;;19.80;71.60;;;;;;5034187;28;20032;-73
2021/09/22 10:52:41;;;;;;;11.13;5.90;;;19.80;71.20;;;;;;5016100;28;20408;-73
2021/09/22 10:55:13;;;;;;;13.40;6.70;;;19.80;71.10;;;;;;5034261;28;20033;-73
2021/09/22 10:57:41;;;;;;;11.82;6.20;;;19.80;71.50;;;;;;5034159;28;20029;-73
2021/09/22 11:00:16;;;;;;;12.80;5.72;;;19.80;71.10;;;;;;5016209;28;20560;-73
2021/09/22 11:02:53;;;;;;;12.07;6.57;;;19.80;71.30;;;;;;5015954;28;20029;-73
2021/09/22 11:05:27;;;;;;;11.63;6.28;;;19.70;71.30;;;;;;5016092;28;20030;-73
2021/09/22 11:07:53;;;;;;;11.98;5.65;;;19.70;71.60;;;;;;5034161;28;20026;-73
2021/09/22 11:10:53;;;;;;;12.40;6.07;;;19.70;71.40;;;;;;5033752;28;20072;-73
2021/09/22 11:13:19;;;;;;;10.82;6.07;;;19.70;71.40;;;;;;5033664;28;20013;-73
2021/09/22 11:15:45;;;;;;;11.23;6.13;;;19.70;71.50;;;;;;5016049;28;20033;-73
2021/09/22 11:18:11;;;;;;;10.50;5.78;;;19.60;71.60;;;;;;5033874;28;20159;-73
2021/09/22 11:20:37;;;;;;;9.70;5.53;;;19.60;71.70;;;;;;5033328;28;20108;-73
2021/09/22 11:23:10;;;;;;;11.15;5.65;;;19.60;71.90;;;;;;5033645;28;20032;-73
2021/09/22 11:25:36;;;;;;;9.85;5.57;;;19.50;72.10;;;;;;5015963;28;20028;-73
2021/09/22 11:28:07;;;;;;;11.18;5.70;;;19.50;72.30;;;;;;5033420;28;20029;-73
2021/09/22 11:30:33;;;;;;;12.25;5.50;;;19.50;72.40;;;;;;5015079;28;20026;-73
2021/09/22 11:32:59;;;;;;;10.20;5.13;;;19.50;72.40;;;;;;5015717;28;20049;-73
2021/09/22 11:35:29;;;;;;;8.75;5.03;;;19.40;72.40;;;;;;5015502;28;20104;-73
2021/09/22 11:37:57;;;;;;;11.90;5.60;;;19.50;72.50;;;;;;5033363;28;20025;-73
2021/09/22 11:40:32;;;;;;;10.05;5.28;;;19.50;72.40;;;;;;5033016;28;20393;-73
2021/09/22 11:43:07;;;;;;;9.73;5.15;;;19.50;72.40;;;;;;5014517;28;20030;-73
2021/09/22 11:45:37;;;;;;;10.35;5.40;;;19.40;72.50;;;;;;5033174;28;20021;-73
2021/09/22 11:48:03;;;;;;;11.25;5.22;;;19.40;72.60;;;;;;5015341;28;20121;-73
2021/09/22 11:50:36;;;;;;;10.98;4.82;;;19.40;72.60;;;;;;5032683;28;20018;-73
2021/09/22 11:53:16;;;;;;;9.07;4.75;;;19.40;72.60;;;;;;5015357;28;20478;-73
2021/09/22 11:55:45;;;;;;;9.63;4.90;;;19.50;72.50;;;;;;5033047;28;20064;-73
2021/09/22 11:58:13;;;;;;;9.27;5.18;;;19.40;72.30;;;;;;5015190;28;20307;-73
2021/09/22 12:00:40;;;;;;;9.05;4.88;;;19.50;72.40;;;;;;5014723;28;20028;-73
2021/09/22 12:03:06;;;;;;;8.90;4.43;;;19.40;72.50;;;;;;5014959;28;20025;-73
2021/09/22 12:05:32;;;;;;;7.47;4.18;;;19.40;72.60;;;;;;5032678;28;20025;-73
2021/09/22 12:07:57;;;;;;;8.65;4.88;;;19.40;72.60;;;;;;5014874;28;20509;-73
2021/09/22 12:10:24;;;;;;;8.90;4.30;;;19.40;72.70;;;;;;5032512;28;20021;-72
2021/09/22 12:12:51;;;;;;;8.63;4.47;;;19.40;72.70;;;;;;5032627;28;20022;-73
2021/09/22 12:15:17;;;;;;;8.40;4.57;;;19.40;72.70;;;;;;5032531;28;20490;-73
2021/09/22 12:17:43;;;;;;;8.18;4.30;;;19.40;72.70;;;;;;5014814;28;20107;-73
2021/09/22 12:20:12;;;;;;;10.23;4.75;;;19.40;72.70;;;;;;5014592;28;20025;-73
2021/09/22 12:22:39;;;;;;;8.63;4.70;;;19.40;72.70;;;;;;5014550;28;20278;-73
2021/09/22 12:25:07;;;;;;;8.77;4.68;;;19.40;72.70;;;;;;5032385;28;20025;-73
2021/09/22 12:27:33;;;;;;;9.82;4.80;;;19.40;72.80;;;;;;5014576;28;20029;-73
2021/09/22 12:30:10;;;;;;;8.60;4.55;;;19.30;72.80;;;;;;5013919;28;20467;-73
2021/09/22 12:33:00;;;;;;;7.85;4.18;;;19.30;72.80;;;;;;5031971;28;20107;-73
2021/09/22 12:35:31;;;;;;;8.00;4.53;;;19.30;73.00;;;;;;5014667;28;20272;-72
2021/09/22 12:38:01;;;;;;;8.25;4.18;;;19.30;73.00;;;;;;5032239;28;20021;-73
2021/09/22 12:40:27;;;;;;;7.38;3.65;;;19.30;73.00;;;;;;5014212;28;20112;-72
2021/09/22 12:42:52;;;;;;;8.27;4.10;;;19.30;73.10;;;;;;5014392;28;20594;-73
2021/09/22 12:45:27;;;;;;;6.38;3.83;;;19.30;73.10;;;;;;5014392;28;20386;-73
2021/09/22 12:48:04;;;;;;;7.18;4.10;;;19.30;73.10;;;;;;5032053;28;20037;-73